Time;durP1;ratioP1;P1;durP2;ratioP2;P2;SDS_P1;SDS_P2;PMS_P1;PMS_P2;Temp;Humidity;BMP_temperature;BMP_pressure;BME280_temperature;BME280_humidity;BME280_pressure;Samples;Min_cycle;Max_cycle;Signal;HPM_P1;HPM_P2
2022/02/12 00:00:31;;;;;;;;;;;-3.30;99.90;;;;;;5071448;28;20277;-74
2022/02/12 00:02:57;;;;;;;;;;;-3.40;99.90;;;;;;5069954;28;19942;-77
2022/02/12 00:05:26;;;;;;;;;;;-3.50;99.90;;;;;;5069626;28;19915;-74
2022/02/12 00:07:52;;;;;;;;;;;-3.50;99.90;;;;;;5071232;28;19913;-75
2022/02/12 00:10:18;;;;;;;;;;;-3.50;99.90;;;;;;5071283;28;19951;-75
2022/02/12 00:12:44;;;;;;;;;;;-3.40;99.90;;;;;;5069639;28;20005;-75
2022/02/12 00:15:09;;;;;;;;;;;-3.40;99.90;;;;;;5070850;28;19915;-75
2022/02/12 00:17:35;;;;;;;;;;;-3.60;99.90;;;;;;5071891;28;19912;-75
2022/02/12 00:20:01;;;;;;;;;;;-3.60;99.90;;;;;;5074441;28;19908;-75
2022/02/12 00:22:27;;;;;;;;;;;-3.80;99.90;;;;;;5074764;28;19912;-75
2022/02/12 00:24:52;;;;;;;;;;;-3.80;99.90;;;;;;5073279;28;19912;-76
2022/02/12 00:27:17;;;;;;;;;;;-3.80;99.90;;;;;;5074471;28;20328;-76
2022/02/12 00:29:43;;;;;;;;;;;-3.70;99.90;;;;;;5074804;28;19908;-74
2022/02/12 00:32:09;;;;;;;;;;;-3.70;99.90;;;;;;5074758;28;20566;-75
2022/02/12 00:34:34;;;;;;;;;;;-3.70;99.90;;;;;;5070051;28;20324;-76
2022/02/12 00:37:00;;;;;;;;;;;-3.70;99.90;;;;;;5074145;28;19912;-76
2022/02/12 00:39:25;;;;;;;;;;;-3.80;99.90;;;;;;5073258;28;19908;-76
2022/02/12 00:41:51;;;;;;;;;;;-3.90;99.90;;;;;;5074430;28;19916;-76
2022/02/12 00:44:16;;;;;;;;;;;-4.00;99.90;;;;;;5072804;28;19912;-76
2022/02/12 00:46:42;;;;;;;;;;;-3.90;99.90;;;;;;5074267;28;19916;-74
2022/02/12 00:49:07;;;;;;;;;;;-4.00;99.90;;;;;;5073147;28;19912;-76
2022/02/12 00:51:33;;;;;;;;;;;-4.00;99.90;;;;;;5074265;28;20168;-75
2022/02/12 00:53:59;;;;;;;;;;;-4.10;99.90;;;;;;5074010;28;19909;-75
2022/02/12 00:56:24;;;;;;;;;;;-4.10;99.90;;;;;;5074116;28;20407;-76
2022/02/12 00:58:51;;;;;;;;;;;-4.10;99.90;;;;;;5074204;28;19966;-74
2022/02/12 01:01:17;;;;;;;;;;;-4.00;99.90;;;;;;5074156;28;19912;-76
2022/02/12 01:03:43;;;;;;;;;;;-4.10;99.90;;;;;;5072398;28;20012;-75
2022/02/12 01:06:08;;;;;;;;;;;-4.30;99.90;;;;;;5073060;28;20352;-76
2022/02/12 01:08:34;;;;;;;;;;;-4.30;99.90;;;;;;5073900;28;19954;-76
2022/02/12 01:10:59;;;;;;;;;;;-4.30;99.90;;;;;;5074221;28;19913;-75
2022/02/12 01:13:25;;;;;;;;;;;-4.30;99.90;;;;;;5072500;28;20269;-76
2022/02/12 01:15:51;;;;;;;;;;;-4.30;99.90;;;;;;5073960;28;19920;-74
2022/02/12 01:18:17;;;;;;;;;;;-4.30;99.90;;;;;;5073813;28;19919;-76
2022/02/12 01:20:42;;;;;;;;;;;-4.40;99.90;;;;;;5072342;28;19913;-75
2022/02/12 01:23:08;;;;;;;;;;;-4.40;99.90;;;;;;5072008;28;20276;-77
2022/02/12 01:25:33;;;;;;;;;;;-4.40;99.90;;;;;;5072598;28;19931;-76
2022/02/12 01:27:59;;;;;;;;;;;-4.40;99.90;;;;;;5073663;28;19915;-75
2022/02/12 01:30:26;;;;;;;;;;;-4.40;99.90;;;;;;5071452;28;20003;-73
2022/02/12 01:32:52;;;;;;;;;;;-4.40;99.90;;;;;;5072112;28;19919;-76
2022/02/12 01:35:19;;;;;;;;;;;-4.40;99.90;;;;;;5070143;28;19916;-75
2022/02/12 01:37:44;;;;;;;;;;;-4.40;99.90;;;;;;5069574;28;19912;-76
2022/02/12 01:40:10;;;;;;;;;;;-4.50;99.90;;;;;;5073459;28;20375;-76
2022/02/12 01:42:36;;;;;;;;;;;-4.50;99.90;;;;;;5071314;28;20394;-75
2022/02/12 01:45:02;;;;;;;;;;;-4.50;99.90;;;;;;5072886;28;19967;-75
2022/02/12 01:47:28;;;;;;;;;;;-4.60;99.90;;;;;;5073304;28;19963;-76
2022/02/12 01:49:54;;;;;;;;;;;-4.60;99.90;;;;;;5073584;28;19947;-76
2022/02/12 01:52:21;;;;;;;;;;;-4.50;99.90;;;;;;5071682;28;19951;-76
2022/02/12 01:54:46;;;;;;;;;;;-4.60;99.90;;;;;;5077560;28;20281;-76
2022/02/12 01:57:12;;;;;;;;;;;-4.70;99.90;;;;;;5090435;28;19900;-73
2022/02/12 01:59:40;;;;;;;;;;;-4.80;99.90;;;;;;5097928;28;19912;-73
2022/02/12 02:02:06;;;;;;;;;;;-4.80;99.90;;;;;;5088357;28;19970;-73
2022/02/12 02:04:32;;;;;;;;;;;-4.70;99.90;;;;;;5068327;28;19921;-73
2022/02/12 02:06:57;;;;;;;;;;;-4.70;99.90;;;;;;5072613;28;19908;-75
2022/02/12 02:09:23;;;;;;;;;;;-4.60;99.90;;;;;;5072786;28;20353;-76
2022/02/12 02:11:48;;;;;;;;;;;-4.70;99.90;;;;;;5071393;28;19915;-75
2022/02/12 02:14:14;;;;;;;;;;;-4.70;99.90;;;;;;5070936;28;20323;-74
2022/02/12 02:16:41;;;;;;;;;;;-4.70;99.90;;;;;;5070624;28;19920;-75
2022/02/12 02:19:07;;;;;;;;;;;-4.70;99.90;;;;;;5072519;28;19908;-75
2022/02/12 02:21:37;;;;;;;;;;;-4.80;99.90;;;;;;5072362;28;19908;-75
2022/02/12 02:24:03;;;;;;;;;;;-4.80;99.90;;;;;;5072124;28;19919;-75
2022/02/12 02:26:28;;;;;;;;;;;-4.80;99.90;;;;;;5072364;28;20372;-75
2022/02/12 02:28:54;;;;;;;;;;;-4.70;99.90;;;;;;5072596;28;19909;-76
2022/02/12 02:31:19;;;;;;;;;;;-4.90;99.90;;;;;;5072074;28;19912;-76
2022/02/12 02:33:45;;;;;;;;;;;-5.00;99.90;;;;;;5071962;28;19940;-75
2022/02/12 02:36:12;;;;;;;;;;;-5.10;99.90;;;;;;5073000;28;20333;-75
2022/02/12 02:38:37;;;;;;;;;;;-5.00;99.90;;;;;;5070882;28;19950;-76
2022/02/12 02:41:03;;;;;;;;;;;-4.80;99.90;;;;;;5070730;28;19956;-76
2022/02/12 02:43:29;;;;;;;;;;;-4.90;99.90;;;;;;5070486;28;19920;-74
2022/02/12 02:45:54;;;;;;;;;;;-5.00;99.90;;;;;;5070738;28;19909;-75
2022/02/12 02:48:20;;;;;;;;;;;-4.90;99.90;;;;;;5071967;28;20003;-75
2022/02/12 02:56:14;;;;;;;;;;;-5.00;99.90;;;;;;5067621;28;19915;-75
2022/02/12 02:58:41;;;;;;;;;;;-5.00;99.90;;;;;;5071856;28;20368;-76
2022/02/12 03:01:08;;;;;;;;;;;-5.10;99.90;;;;;;5071657;28;19967;-74
2022/02/12 03:03:34;;;;;;;;;;;-5.00;99.90;;;;;;5071380;28;20353;-76
2022/02/12 03:06:00;;;;;;;;;;;-5.10;99.90;;;;;;5070200;28;19938;-76
2022/02/12 03:08:26;;;;;;;;;;;-5.10;99.90;;;;;;5071487;28;19990;-75
2022/02/12 03:10:52;;;;;;;;;;;-5.00;99.90;;;;;;5071647;28;19915;-75
2022/02/12 03:13:17;;;;;;;;;;;-5.10;99.90;;;;;;5070044;28;19995;-74
2022/02/12 03:15:43;;;;;;;;;;;-5.10;99.90;;;;;;5071545;28;20278;-76
2022/02/12 03:18:08;;;;;;;;;;;-5.10;99.90;;;;;;5070293;28;20357;-75
2022/02/12 03:20:34;;;;;;;;;;;-5.00;99.90;;;;;;5071481;28;20377;-76
2022/02/12 03:23:00;;;;;;;;;;;-5.00;99.90;;;;;;5071377;28;19999;-76
2022/02/12 03:25:27;;;;;;;;;;;-5.10;99.90;;;;;;5070005;28;19909;-75
2022/02/12 03:27:59;;;;;;;;;;;-5.10;99.90;;;;;;5071362;28;20335;-75
2022/02/12 03:30:26;;;;;;;;;;;-5.10;99.90;;;;;;5065039;28;19908;-76
2022/02/12 03:32:51;;;;;;;;;;;-5.10;99.90;;;;;;5071400;28;19931;-76
2022/02/12 03:35:17;;;;;;;;;;;-5.20;99.90;;;;;;5069745;28;19913;-75
2022/02/12 03:37:43;;;;;;;;;;;-5.20;99.90;;;;;;5071197;28;20291;-75
2022/02/12 03:40:10;;;;;;;;;;;-5.20;99.90;;;;;;5070097;28;19908;-75
2022/02/12 03:42:36;;;;;;;;;;;-5.10;99.90;;;;;;5071235;28;19916;-75
2022/02/12 03:45:01;;;;;;;;;;;-5.00;99.90;;;;;;5069531;28;19939;-76
2022/02/12 03:47:27;;;;;;;;;;;-5.10;99.90;;;;;;5071335;28;20349;-75
2022/02/12 03:49:52;;;;;;;;;;;-5.10;99.90;;;;;;5069929;28;19908;-75
2022/02/12 03:52:18;;;;;;;;;;;-5.10;99.90;;;;;;5071094;28;20282;-76
2022/02/12 03:54:43;;;;;;;;;;;-5.10;99.90;;;;;;5073983;28;20507;-75
2022/02/12 03:57:09;;;;;;;;;;;-5.10;99.90;;;;;;5075259;28;19908;-76
2022/02/12 03:59:34;;;;;;;;;;;-5.10;99.90;;;;;;5073973;28;19915;-74
2022/02/12 04:02:01;;;;;;;;;;;-5.10;99.90;;;;;;5075084;28;20369;-76
2022/02/12 04:04:26;;;;;;;;;;;-5.30;99.90;;;;;;5074677;28;20438;-76
2022/02/12 04:06:52;;;;;;;;;;;-5.30;99.90;;;;;;5074934;28;19908;-75
2022/02/12 04:09:17;;;;;;;;;;;-5.40;99.90;;;;;;5075047;28;19920;-75
2022/02/12 04:11:43;;;;;;;;;;;-5.30;99.90;;;;;;5074804;28;20327;-76
2022/02/12 04:14:08;;;;;;;;;;;-5.30;99.90;;;;;;5073275;28;19912;-72
2022/02/12 04:16:34;;;;;;;;;;;-5.30;99.90;;;;;;5073944;28;19955;-76
2022/02/12 04:19:00;;;;;;;;;;;-5.30;99.90;;;;;;5074924;28;19909;-76
2022/02/12 04:21:25;;;;;;;;;;;-5.40;99.90;;;;;;5074754;28;19961;-75
2022/02/12 04:23:51;;;;;;;;;;;-5.50;99.90;;;;;;5074414;28;19912;-75
2022/02/12 04:26:16;;;;;;;;;;;-5.40;99.90;;;;;;5074805;28;19922;-75
2022/02/12 04:28:41;;;;;;;;;;;-5.40;99.90;;;;;;5074771;28;19944;-75
2022/02/12 04:31:07;;;;;;;;;;;-5.50;99.90;;;;;;5073298;28;19915;-74
2022/02/12 04:33:34;;;;;;;;;;;-5.40;99.90;;;;;;5074189;28;19908;-75
2022/02/12 04:35:59;;;;;;;;;;;-5.50;99.90;;;;;;5076739;28;19962;-75
2022/02/12 04:38:25;;;;;;;;;;;-5.50;99.90;;;;;;5074137;28;19908;-76
2022/02/12 04:40:50;;;;;;;;;;;-5.60;99.90;;;;;;5073192;28;19947;-75
2022/02/12 04:43:16;;;;;;;;;;;-5.50;99.90;;;;;;5074027;28;19915;-76
2022/02/12 04:45:41;;;;;;;;;;;-5.60;99.90;;;;;;5074256;28;19948;-74
2022/02/12 04:48:07;;;;;;;;;;;-5.50;99.90;;;;;;5074100;28;19908;-75
2022/02/12 04:50:33;;;;;;;;;;;-5.30;99.90;;;;;;5072924;28;19909;-76
2022/02/12 04:52:58;;;;;;;;;;;-5.50;99.90;;;;;;5073956;28;20364;-75
2022/02/12 04:55:24;;;;;;;;;;;-5.40;99.90;;;;;;5073963;28;19912;-74
2022/02/12 04:57:50;;;;;;;;;;;-5.30;99.90;;;;;;5074030;28;19909;-75
2022/02/12 05:00:16;;;;;;;;;;;-5.30;99.90;;;;;;5074018;28;20319;-75
2022/02/12 05:02:41;;;;;;;;;;;-5.20;99.90;;;;;;5074075;28;20593;-75
2022/02/12 05:05:08;;;;;;;;;;;-5.20;99.90;;;;;;5066530;28;20285;-75
2022/02/12 05:07:33;;;;;;;;;;;-5.20;99.90;;;;;;5072348;28;19912;-75
2022/02/12 05:09:59;;;;;;;;;;;-5.10;99.90;;;;;;5072628;28;19915;-76
2022/02/12 05:12:24;;;;;;;;;;;-4.90;99.90;;;;;;5073745;28;20262;-75
2022/02/12 05:14:50;;;;;;;;;;;-4.90;99.90;;;;;;5073523;28;20315;-73
2022/02/12 05:17:15;;;;;;;;;;;-4.90;99.90;;;;;;5073756;28;19921;-75
2022/02/12 05:19:41;;;;;;;;;;;-4.90;99.90;;;;;;5074118;28;19915;-75
2022/02/12 05:22:07;;;;;;;;;;;-4.80;99.90;;;;;;5073235;28;19909;-75
2022/02/12 05:24:32;;;;;;;;;;;-4.70;99.90;;;;;;5073337;28;19917;-75
2022/02/12 05:26:58;;;;;;;;;;;-4.50;99.90;;;;;;5072261;28;19909;-75
2022/02/12 05:29:24;;;;;;;;;;;-4.50;99.90;;;;;;5073470;28;19915;-75
2022/02/12 05:31:49;;;;;;;;;;;-4.60;99.90;;;;;;5073329;28;19916;-75
2022/02/12 05:34:15;;;;;;;;;;;-4.50;99.90;;;;;;5071230;28;20011;-74
2022/02/12 05:36:40;;;;;;;;;;;-4.40;99.90;;;;;;5072881;28;19916;-75
2022/02/12 05:39:09;;;;;;;;;;;-4.20;99.90;;;;;;5073703;28;20427;-75
2022/02/12 05:41:34;;;;;;;;;;;-4.20;99.90;;;;;;5073154;28;19909;-75
2022/02/12 05:44:00;;;;;;;;;;;-4.20;99.90;;;;;;5071708;28;20305;-75
2022/02/12 05:46:25;;;;;;;;;;;-4.10;99.90;;;;;;5071835;28;19912;-75
2022/02/12 05:48:51;;;;;;;;;;;-4.10;99.90;;;;;;5073224;28;19908;-74
2022/02/12 05:51:18;;;;;;;;;;;-4.10;99.90;;;;;;5073027;28;20052;-75
2022/02/12 05:53:44;;;;;;;;;;;-4.10;99.90;;;;;;5072735;28;19908;-74
2022/02/12 05:56:10;;;;;;;;;;;-4.20;99.90;;;;;;5071693;28;19909;-75
2022/02/12 05:58:36;;;;;;;;;;;-4.20;99.90;;;;;;5072888;28;19915;-75
2022/02/12 06:01:01;;;;;;;;;;;-4.30;99.90;;;;;;5073091;28;19977;-75
2022/02/12 06:03:27;;;;;;;;;;;-4.30;99.90;;;;;;5071140;28;19913;-75
2022/02/12 06:05:52;;;;;;;;;;;-4.30;99.90;;;;;;5067756;28;19913;-75
2022/02/12 06:08:18;;;;;;;;;;;-4.40;99.90;;;;;;5071477;28;19920;-75
2022/02/12 06:10:44;;;;;;;;;;;-4.40;99.90;;;;;;5074332;28;19963;-73
2022/02/12 06:13:09;;;;;;;;;;;-4.40;99.90;;;;;;5070217;28;19909;-75
2022/02/12 06:15:36;;;;;;;;;;;-4.40;99.90;;;;;;5072005;28;19913;-75
2022/02/12 06:18:05;;;;;;;;;;;-4.40;99.90;;;;;;5070436;28;19919;-75
2022/02/12 06:20:30;;;;;;;;;;;-4.40;99.90;;;;;;5070533;28;20499;-75
2022/02/12 06:22:56;;;;;;;;;;;-4.50;99.90;;;;;;5075036;28;19948;-75
2022/02/12 06:25:22;;;;;;;;;;;-4.60;99.90;;;;;;5071464;28;19953;-73
2022/02/12 06:27:47;;;;;;;;;;;-4.50;99.90;;;;;;5071797;28;19916;-76
2022/02/12 06:30:13;;;;;;;;;;;-4.50;99.90;;;;;;5071920;28;19908;-75
2022/02/12 06:32:38;;;;;;;;;;;-4.60;99.90;;;;;;5069730;28;19912;-74
2022/02/12 06:35:04;;;;;;;;;;;-4.70;99.90;;;;;;5072327;28;19934;-73
2022/02/12 06:37:30;;;;;;;;;;;-4.70;99.90;;;;;;5072599;28;19912;-75
2022/02/12 06:39:56;;;;;;;;;;;-4.80;99.90;;;;;;5072720;28;20430;-74
2022/02/12 06:42:21;;;;;;;;;;;-4.80;99.90;;;;;;5072989;28;19912;-75
2022/02/12 06:44:47;;;;;;;;;;;-4.90;99.90;;;;;;5073044;28;19917;-74
2022/02/12 06:47:12;;;;;;;;;;;-5.00;99.90;;;;;;5072782;28;19919;-74
2022/02/12 06:49:38;;;;;;;;;;;-5.00;99.90;;;;;;5068789;28;20277;-71
2022/02/12 06:52:04;;;;;;;;;;;-5.00;99.90;;;;;;5069397;28;19976;-71
2022/02/12 06:54:30;;;;;;;;;;;-4.90;99.90;;;;;;5074327;28;19956;-72
2022/02/12 06:56:56;;;;;;;;;;;-4.90;99.90;;;;;;5071764;28;20006;-71
2022/02/12 06:59:22;;;;;;;;;;;-5.00;99.90;;;;;;5077429;28;19916;-71
2022/02/12 07:01:47;;;;;;;;;;;-5.10;99.90;;;;;;5078550;28;19908;-72
2022/02/12 07:04:13;;;;;;;;;;;-5.10;99.90;;;;;;5070202;28;19920;-72
2022/02/12 07:06:40;;;;;;;;;;;-5.20;99.90;;;;;;5071172;28;19919;-72
2022/02/12 07:09:05;;;;;;;;;;;-5.20;99.90;;;;;;5071789;28;19948;-73
2022/02/12 07:11:31;;;;;;;;;;;-5.30;99.90;;;;;;5069470;28;20332;-72
2022/02/12 07:13:57;;;;;;;;;;;-5.40;99.90;;;;;;5071193;28;19914;-72
2022/02/12 07:16:22;;;;;;;;;;;-5.30;99.90;;;;;;5071848;28;20011;-73
2022/02/12 07:18:48;;;;;;;;;;;-5.10;99.90;;;;;;5072090;28;20334;-72
2022/02/12 07:21:14;;;;;;;;;;;-5.00;99.90;;;;;;5072114;28;19932;-72
2022/02/12 07:23:40;;;;;;;;;;;-4.90;99.90;;;;;;5072173;28;19912;-72
2022/02/12 07:26:06;;;;;;;;;;;-4.90;99.90;;;;;;5072514;28;20316;-72
2022/02/12 07:28:32;;;;;;;;;;;-4.90;99.90;;;;;;5070733;28;19952;-72
2022/02/12 07:30:58;;;;;;;;;;;-5.00;99.90;;;;;;5071401;28;19908;-71
2022/02/12 07:33:26;;;;;;;;;;;-5.00;99.90;;;;;;5071112;28;19915;-72
2022/02/12 07:35:54;;;;;;;;;;;-5.10;99.90;;;;;;5071003;28;19912;-72
2022/02/12 07:38:20;;;;;;;;;;;-5.20;99.90;;;;;;5071369;28;19916;-72
2022/02/12 07:40:45;;;;;;;;;;;-5.10;99.90;;;;;;5071284;28;19908;-72
2022/02/12 07:43:11;;;;;;;;;;;-5.00;99.90;;;;;;5070862;28;19991;-73
2022/02/12 07:45:37;;;;;;;;;;;-4.90;99.90;;;;;;5071346;28;19909;-73
2022/02/12 07:48:02;;;;;;;;;;;-5.00;99.90;;;;;;5071058;28;19909;-73
2022/02/12 07:50:28;;;;;;;;;;;-4.90;99.90;;;;;;5071104;28;19909;-72
2022/02/12 07:52:54;;;;;;;;;;;-4.70;99.90;;;;;;5071029;28;19935;-73
2022/02/12 07:55:19;;;;;;;;;;;-4.60;99.90;;;;;;5070833;28;19909;-73
2022/02/12 07:57:46;;;;;;;;;;;-4.40;99.90;;;;;;5071456;28;20004;-72
2022/02/12 08:00:13;;;;;;;;;;;-4.30;99.90;;;;;;5071056;28;19915;-73
2022/02/12 08:02:39;;;;;;;;;;;-4.20;99.90;;;;;;5069556;28;20331;-73
2022/02/12 08:05:04;;;;;;;;;;;-4.10;99.90;;;;;;5070098;28;19912;-72
2022/02/12 08:07:30;;;;;;;;;;;-3.90;99.90;;;;;;5070523;28;20344;-73
2022/02/12 08:09:56;;;;;;;;;;;-3.90;99.90;;;;;;5070974;28;20036;-73
2022/02/12 08:12:22;;;;;;;;;;;-3.70;99.90;;;;;;5071859;28;19916;-73
2022/02/12 08:14:52;;;;;;;;;;;-3.60;99.90;;;;;;5071217;28;19908;-72
2022/02/12 08:17:18;;;;;;;;;;;-3.50;99.90;;;;;;5071609;28;20382;-72
2022/02/12 08:19:45;;;;;;;;;;;-3.40;99.90;;;;;;5071227;28;19916;-72
2022/02/12 08:22:11;;;;;;;;;;;-3.20;99.90;;;;;;5070719;28;20009;-72
2022/02/12 08:24:37;;;;;;;;;;;-3.10;99.90;;;;;;5070455;28;20007;-72
2022/02/12 08:27:03;;;;;;;;;;;-3.00;99.90;;;;;;5070860;28;20313;-72
2022/02/12 08:29:29;;;;;;;;;;;-2.80;99.90;;;;;;5069593;28;19908;-72
2022/02/12 08:31:55;;;;;;;;;;;-2.70;99.90;;;;;;5070797;28;19927;-72
2022/02/12 08:34:21;;;;;;;;;;;-2.60;99.90;;;;;;5067918;28;19920;-72
2022/02/12 08:36:47;;;;;;;;;;;-1.40;99.90;;;;;;5072765;28;20356;-74
2022/02/12 08:39:13;;;;;;;;;;;-0.60;99.90;;;;;;5071318;28;19916;-73
2022/02/12 08:41:38;;;;;;;;;;;-0.80;99.90;;;;;;5074590;28;19908;-72
2022/02/12 08:44:04;;;;;;;;;;;-1.00;99.90;;;;;;5074505;28;19913;-73
2022/02/12 08:46:30;;;;;;;;;;;-0.70;99.90;;;;;;5074410;28;19908;-73
2022/02/12 08:48:55;;;;;;;;;;;0.80;99.90;;;;;;5074576;28;20062;-72
2022/02/12 08:51:21;;;;;;;;;;;3.00;99.90;;;;;;5074299;28;19928;-73
2022/02/12 08:53:46;;;;;;;;;;;4.50;99.90;;;;;;5073979;28;19944;-73
2022/02/12 08:56:12;;;;;;;;;;;5.50;99.90;;;;;;5074571;28;19909;-73
2022/02/12 08:58:39;;;;;;;;;;;7.30;96.80;;;;;;5074176;28;19912;-72
2022/02/12 09:01:05;;;;;;;;;;;7.90;93.40;;;;;;5072920;28;19909;-73
2022/02/12 09:03:31;;;;;;;;;;;8.10;92.40;;;;;;5073687;28;19916;-73
2022/02/12 09:05:58;;;;;;;;;;;8.60;91.10;;;;;;5069467;28;19936;-73
2022/02/12 09:08:24;;;;;;;;;;;8.50;91.60;;;;;;5074058;28;19910;-71
2022/02/12 09:10:49;;;;;;;;;;;9.10;88.50;;;;;;5074425;28;19915;-73
2022/02/12 09:13:15;;;;;;;;;;;9.40;88.90;;;;;;5073973;28;19999;-73
2022/02/12 09:15:40;;;;;;;;;;;9.50;87.00;;;;;;5074074;28;19920;-73
2022/02/12 09:18:06;;;;;;;;;;;9.80;85.50;;;;;;5074144;28;19908;-71
2022/02/12 09:20:31;;;;;;;;;;;10.10;83.50;;;;;;5072788;28;19909;-73
2022/02/12 09:22:57;;;;;;;;;;;10.90;81.00;;;;;;5073670;28;19913;-73
2022/02/12 09:25:22;;;;;;;;;;;10.70;81.40;;;;;;5071963;28;20033;-73
2022/02/12 09:27:48;;;;;;;;;;;10.70;81.60;;;;;;5073753;28;19916;-72
2022/02/12 09:30:13;;;;;;;;;;;11.30;78.60;;;;;;5073785;28;20007;-73
2022/02/12 09:32:39;;;;;;;;;;;11.40;79.20;;;;;;5073673;28;19908;-73
2022/02/12 09:35:05;;;;;;;;;;;10.90;78.50;;;;;;5072465;28;19908;-72
2022/02/12 09:37:30;;;;;;;;;;;11.20;77.80;;;;;;5073234;28;20389;-72
2022/02/12 09:39:56;;;;;;;;;;;11.00;76.80;;;;;;5073939;28;19909;-73
2022/02/12 09:42:21;;;;;;;;;;;11.20;78.40;;;;;;5074653;28;19954;-73
2022/02/12 09:44:47;;;;;;;;;;;11.50;77.30;;;;;;5073263;28;20004;-73
2022/02/12 09:47:12;;;;;;;;;;;12.00;74.30;;;;;;5073525;28;19908;-72
2022/02/12 09:49:40;;;;;;;;;;;12.00;74.90;;;;;;5073835;28;20370;-73
2022/02/12 09:52:09;;;;;;;;;;;13.00;71.90;;;;;;5072286;28;19961;-73
2022/02/12 09:54:34;;;;;;;;;;;12.90;72.30;;;;;;5073662;28;19935;-72
2022/02/12 09:57:00;;;;;;;;;;;13.30;71.00;;;;;;5073309;28;19912;-73
2022/02/12 09:59:25;;;;;;;;;;;13.90;70.80;;;;;;5072994;28;19923;-73
2022/02/12 10:01:51;;;;;;;;;;;14.30;67.40;;;;;;5073932;28;19909;-72
2022/02/12 10:04:18;;;;;;;;;;;14.20;69.10;;;;;;5073611;28;19923;-73
2022/02/12 10:06:44;;;;;;;;;;;14.50;66.70;;;;;;5073078;28;20003;-73
2022/02/12 10:09:10;;;;;;;;;;;14.20;66.30;;;;;;5072581;28;20311;-73
2022/02/12 10:12:02;;;;;;;;;;;14.00;66.50;;;;;;5072929;28;19991;-73
2022/02/12 10:14:34;;;;;;;;;;;13.80;62.40;;;;;;5069770;28;19909;-73
2022/02/12 10:17:02;;;;;;;;;;;13.00;66.40;;;;;;5071701;28;19916;-74
2022/02/12 10:19:29;;;;;;;;;;;12.90;64.80;;;;;;5073475;28;19915;-74
2022/02/12 10:22:15;;;;;;;;;;;15.00;62.60;;;;;;5072924;28;19908;-74
2022/02/12 10:24:50;;;;;;;;;;;14.40;62.70;;;;;;5066541;28;19919;-74
2022/02/12 10:27:16;;;;;;;;;;;15.20;62.60;;;;;;5073164;28;19909;-73
2022/02/12 10:29:45;;;;;;;;;;;14.70;61.00;;;;;;5072325;28;19909;-74
2022/02/12 10:32:11;;;;;;;;;;;15.60;61.20;;;;;;5072273;28;19999;-74
2022/02/12 10:34:43;;;;;;;;;;;15.90;59.10;;;;;;5071828;28;20357;-74
2022/02/12 10:37:10;;;;;;;;;;;15.20;56.20;;;;;;5071981;28;20285;-74
2022/02/12 10:39:54;;;;;;;;;;;15.60;58.50;;;;;;5072171;28;19915;-73
2022/02/12 10:42:20;;;;;;;;;;;14.40;57.10;;;;;;5072065;28;19950;-74
2022/02/12 10:44:46;;;;;;;;;;;12.80;62.60;;;;;;5071819;28;19912;-74
2022/02/12 10:47:13;;;;;;;;;;;12.00;64.40;;;;;;5071925;28;19915;-74
2022/02/12 10:49:42;;;;;;;;;;;12.30;60.30;;;;;;5072266;28;19915;-74
2022/02/12 10:52:08;;;;;;;;;;;11.70;64.70;;;;;;5072174;28;20027;-74
2022/02/12 10:54:42;;;;;;;;;;;11.70;65.90;;;;;;5072699;28;19908;-74
2022/02/12 10:57:08;;;;;;;;;;;11.50;65.60;;;;;;5072702;28;19908;-73
2022/02/12 10:59:36;;;;;;;;;;;12.20;63.90;;;;;;5072814;28;19970;-75
2022/02/12 11:02:06;;;;;;;;;;;13.90;63.50;;;;;;5072551;28;19948;-74
2022/02/12 11:04:33;;;;;;;;;;;14.90;58.60;;;;;;5070862;28;19916;-74
2022/02/12 11:07:02;;;;;;;;;;;12.60;60.40;;;;;;5072000;28;19915;-74
2022/02/12 11:09:29;;;;;;;;;;;13.10;60.00;;;;;;5070117;28;19908;-75
2022/02/12 11:11:54;;;;;;;;;;;13.20;59.70;;;;;;5071701;28;19934;-74
2022/02/12 11:14:22;;;;;;;;;;;11.40;62.30;;;;;;5071546;28;19913;-74
2022/02/12 11:16:47;;;;;;;;;;;12.40;64.00;;;;;;5070236;28;19969;-74
2022/02/12 11:19:14;;;;;;;;;;;11.80;63.00;;;;;;5070220;28;19912;-74
2022/02/12 11:21:39;;;;;;;;;;;11.40;62.40;;;;;;5071350;28;19993;-74
2022/02/12 11:24:06;;;;;;;;;;;11.00;65.60;;;;;;5070785;28;19981;-74
2022/02/12 11:26:38;;;;;;;;;;;9.30;68.90;;;;;;5069961;28;19917;-73
2022/02/12 11:29:27;;;;;;;;;;;9.50;70.90;;;;;;5071626;28;19920;-73
2022/02/12 11:32:16;;;;;;;;;;;11.20;66.10;;;;;;5065907;28;19919;-73
2022/02/12 11:35:10;;;;;;;;;;;11.00;64.40;;;;;;5058930;28;19916;-73
2022/02/12 11:37:36;;;;;;;;;;;11.30;64.00;;;;;;5069595;28;19915;-71
2022/02/12 11:40:08;;;;;;;;;;;10.40;62.70;;;;;;5071454;28;19915;-72
2022/02/12 11:42:44;;;;;;;;;;;10.00;67.00;;;;;;5071585;28;20404;-71
2022/02/12 11:45:15;;;;;;;;;;;9.40;70.50;;;;;;5067736;28;19982;-72
2022/02/12 11:48:01;;;;;;;;;;;7.50;72.60;;;;;;5069672;28;20599;-73
2022/02/12 11:50:39;;;;;;;;;;;6.60;75.50;;;;;;5070134;28;19908;-73
2022/02/12 11:53:05;;;;;;;;;;;6.30;79.30;;;;;;5062234;28;19943;-73
2022/02/12 11:55:35;;;;;;;;;;;6.10;79.50;;;;;;5068841;28;20406;-73
2022/02/12 11:58:01;;;;;;;;;;;5.50;79.00;;;;;;5065044;28;19913;-73
2022/02/12 12:00:33;;;;;;;;;;;5.40;80.30;;;;;;5070859;28;19923;-73
2022/02/12 12:03:06;;;;;;;;;;;5.30;78.50;;;;;;5064882;28;20031;-73
2022/02/12 12:05:32;;;;;;;;;;;5.50;79.80;;;;;;5068525;28;20293;-73
2022/02/12 12:08:09;;;;;;;;;;;5.40;81.50;;;;;;5068983;28;19931;-73
2022/02/12 12:10:39;;;;;;;;;;;5.40;81.50;;;;;;5065285;28;19916;-73
2022/02/12 12:13:11;;;;;;;;;;;5.40;82.60;;;;;;5067531;28;20401;-73
2022/02/12 12:15:37;;;;;;;;;;;5.20;80.90;;;;;;5069926;28;19920;-73
2022/02/12 12:18:04;;;;;;;;;;;5.40;81.80;;;;;;5074851;28;19909;-73
2022/02/12 12:20:33;;;;;;;;;;;5.40;81.40;;;;;;5075367;28;19961;-73
2022/02/12 12:23:06;;;;;;;;;;;5.50;80.80;;;;;;5074568;28;20002;-73
2022/02/12 12:25:51;;;;;;;;;;;5.50;77.80;;;;;;5074974;28;19912;-73
2022/02/12 12:28:27;;;;;;;;;;;5.60;75.60;;;;;;5068606;28;19909;-73
2022/02/12 12:30:52;;;;;;;;;;;5.70;76.00;;;;;;5074961;28;19908;-73
2022/02/12 12:33:18;;;;;;;;;;;5.50;75.40;;;;;;5074371;28;20395;-74
2022/02/12 12:35:51;;;;;;;;;;;5.60;77.30;;;;;;5072518;28;19919;-74
2022/02/12 12:38:16;;;;;;;;;;;5.80;77.10;;;;;;5074689;28;19952;-74
2022/02/12 12:40:43;;;;;;;;;;;5.70;77.00;;;;;;5074717;28;19909;-73
2022/02/12 12:43:09;;;;;;;;;;;5.60;73.50;;;;;;5074296;28;20432;-73
2022/02/12 12:45:38;;;;;;;;;;;5.40;72.80;;;;;;5074557;28;19912;-73
2022/02/12 12:48:04;;;;;;;;;;;5.50;72.40;;;;;;5074201;28;20110;-74
2022/02/12 12:50:34;;;;;;;;;;;5.80;73.30;;;;;;5073451;28;19999;-74
2022/02/12 12:53:00;;;;;;;;;;;5.70;75.00;;;;;;5064036;28;19909;-75
2022/02/12 12:55:26;;;;;;;;;;;5.70;72.10;;;;;;5065796;28;20390;-74
2022/02/12 12:57:51;;;;;;;;;;;5.60;72.90;;;;;;5064422;28;19912;-75
2022/02/12 13:00:18;;;;;;;;;;;5.80;71.90;;;;;;5059795;28;19999;-73
2022/02/12 13:02:51;;;;;;;;;;;5.70;70.00;;;;;;5074144;28;19909;-73
2022/02/12 13:05:24;;;;;;;;;;;5.70;71.20;;;;;;5064944;28;20385;-74
2022/02/12 13:07:50;;;;;;;;;;;5.60;71.80;;;;;;5067410;28;19908;-73
2022/02/12 13:10:16;;;;;;;;;;;5.50;72.30;;;;;;5070012;28;19912;-74
2022/02/12 13:12:42;;;;;;;;;;;5.40;75.00;;;;;;5067868;28;19970;-73
2022/02/12 13:15:09;;;;;;;;;;;5.70;72.30;;;;;;5065382;28;19991;-73
2022/02/12 13:17:44;;;;;;;;;;;5.90;69.60;;;;;;5060726;28;19916;-75
2022/02/12 13:20:11;;;;;;;;;;;6.00;69.80;;;;;;5065856;28;19970;-75
2022/02/12 13:22:37;;;;;;;;;;;6.00;72.30;;;;;;5080556;28;19913;-76
2022/02/12 13:25:10;;;;;;;;;;;5.90;70.00;;;;;;5063193;28;19959;-75
2022/02/12 13:27:36;;;;;;;;;;;5.90;67.10;;;;;;5067264;28;19935;-73
2022/02/12 13:30:04;;;;;;;;;;;5.70;70.30;;;;;;5069125;28;19916;-75
2022/02/12 13:32:43;;;;;;;;;;;5.80;70.30;;;;;;5073205;28;20440;-74
2022/02/12 13:35:13;;;;;;;;;;;5.80;69.20;;;;;;5068611;28;19909;-75
2022/02/12 13:37:40;;;;;;;;;;;5.70;70.10;;;;;;5071744;28;20361;-75
2022/02/12 13:40:06;;;;;;;;;;;6.00;68.70;;;;;;5073272;28;19948;-73
2022/02/12 13:42:33;;;;;;;;;;;6.00;71.60;;;;;;5073373;28;20003;-73
2022/02/12 13:45:02;;;;;;;;;;;5.90;71.70;;;;;;5073005;28;19981;-73
2022/02/12 13:47:27;;;;;;;;;;;5.60;69.80;;;;;;5073341;28;20000;-74
2022/02/12 13:49:54;;;;;;;;;;;5.70;68.20;;;;;;5074371;28;19940;-72
2022/02/12 13:52:20;;;;;;;;;;;5.90;70.70;;;;;;5075237;28;19915;-73
2022/02/12 13:54:59;;;;;;;;;;;5.90;68.70;;;;;;5071984;28;20289;-73
2022/02/12 13:57:24;;;;;;;;;;;5.80;70.60;;;;;;5073442;28;19916;-72
2022/02/12 13:59:50;;;;;;;;;;;5.80;70.30;;;;;;5073202;28;19909;-73
2022/02/12 14:02:15;;;;;;;;;;;5.90;68.80;;;;;;5072978;28;20340;-73
2022/02/12 14:04:41;;;;;;;;;;;5.90;71.30;;;;;;5070214;28;19923;-73
2022/02/12 14:07:06;;;;;;;;;;;5.80;70.40;;;;;;5072630;28;19908;-74
2022/02/12 14:09:32;;;;;;;;;;;5.90;70.50;;;;;;5068299;28;19916;-73
2022/02/12 14:11:57;;;;;;;;;;;5.90;71.60;;;;;;5058413;28;19931;-73
2022/02/12 14:14:23;;;;;;;;;;;5.90;72.00;;;;;;5064570;28;19908;-73
2022/02/12 14:16:48;;;;;;;;;;;6.00;72.00;;;;;;5065143;28;20033;-74
2022/02/12 14:19:14;;;;;;;;;;;6.00;72.00;;;;;;5066248;28;19908;-73
2022/02/12 14:21:40;;;;;;;;;;;6.00;71.30;;;;;;5062813;28;19913;-74
2022/02/12 14:24:06;;;;;;;;;;;6.00;71.00;;;;;;5072733;28;20045;-73